Garrison, Kentucky
Current Conditions -  °F | °C
As of 8:35 PM on Thursday 18 Dec 2014 (Local Time) from KDWU Reporting Station
Overcast Overcast  
Wind Chill: 30°   Ceiling: 10000
Heat Index: 30°   Visibility: 10mi
Dew Point: 19°   Wind: 3mph
Humidity: 64%   Direction: 350°N
Pressure: 30.21"   Gusts: NA
Location:  38.61°N, 83.17°W
Report Text: KDWU 190135Z AUTO 35003KT 10SM SCT080 OVC100 M01/M07 A3021 RMK AO1
Loading
Personal Weather Stations






























Interactive Weather Map New forecast layout! Learn more

10-Day Weather Forecast

Advertisements
Track Severe Weather on mobile